Time;durP1;ratioP1;P1;durP2;ratioP2;P2;SDS_P1;SDS_P2;PMS_P1;PMS_P2;Temp;Humidity;BMP_temperature;BMP_pressure;BME280_temperature;BME280_humidity;BME280_pressure;Samples;Min_cycle;Max_cycle;Signal;HPM_P1;HPM_P2
2022/12/16 00:02:06;;;;;;;27.95;10.20;;;;;;;-7.91;100.00;100552.13;6097886;28;20493;-67
2022/12/16 00:05:02;;;;;;;30.33;8.53;;;;;;;-8.01;100.00;100540.31;6078603;28;20095;-68
2022/12/16 00:07:58;;;;;;;15.50;7.18;;;;;;;-7.81;100.00;100527.84;6074371;28;20103;-68
2022/12/16 00:10:56;;;;;;;19.90;8.10;;;;;;;-7.76;100.00;100556.88;6074442;28;20482;-68
2022/12/16 00:13:52;;;;;;;16.73;6.57;;;;;;;-7.21;100.00;100552.97;6074018;28;20041;-68
2022/12/16 00:16:47;;;;;;;14.73;6.10;;;;;;;-7.21;100.00;100547.81;6074192;28;20037;-68
2022/12/16 00:19:42;;;;;;;27.67;9.83;;;;;;;-7.81;100.00;100543.28;6074174;28;20367;-67
2022/12/16 00:22:37;;;;;;;17.23;7.83;;;;;;;-7.68;100.00;100534.41;6073821;28;20025;-68
2022/12/16 00:25:33;;;;;;;14.83;7.47;;;;;;;-7.67;100.00;100556.69;6074192;28;20087;-67
2022/12/16 00:28:28;;;;;;;20.97;7.73;;;;;;;-7.47;100.00;100558.75;6074225;28;20079;-67
2022/12/16 00:31:23;;;;;;;26.13;8.50;;;;;;;-8.08;100.00;100538.78;6073899;28;20116;-67
2022/12/16 00:34:19;;;;;;;20.43;8.00;;;;;;;-8.21;100.00;100552.78;6073455;28;20118;-67
2022/12/16 00:37:14;;;;;;;18.97;8.87;;;;;;;-8.29;100.00;100549.56;6073803;28;20643;-66
2022/12/16 00:40:10;;;;;;;18.50;6.73;;;;;;;-7.85;100.00;100557.09;6073968;28;20570;-67
2022/12/16 00:43:05;;;;;;;15.45;6.82;;;;;;;-7.88;100.00;100557.19;6073285;28;20025;-68
2022/12/16 00:46:00;;;;;;;29.80;8.17;;;;;;;-8.17;100.00;100551.81;6073378;28;20124;-67
2022/12/16 00:48:56;;;;;;;21.60;8.57;;;;;;;-8.05;100.00;100551.56;6073953;28;20141;-67
2022/12/16 00:51:51;;;;;;;25.73;8.20;;;;;;;-8.18;100.00;100553.53;6073097;28;20041;-68
2022/12/16 00:54:46;;;;;;;13.43;6.63;;;;;;;-8.17;100.00;100544.13;6073448;28;20088;-67
2022/12/16 00:57:43;;;;;;;20.40;6.88;;;;;;;-7.80;100.00;100560.44;6073528;28;20132;-68
2022/12/16 01:00:39;;;;;;;17.25;6.38;;;;;;;-7.62;100.00;100559.97;6073025;28;20638;-67
2022/12/16 01:03:35;;;;;;;18.40;7.88;;;;;;;-7.57;100.00;100557.28;6072636;28;20052;-67
2022/12/16 01:06:30;;;;;;;16.02;5.70;;;;;;;-7.92;100.00;100565.84;6073446;28;20476;-67
2022/12/16 01:09:25;;;;;;;19.43;8.43;;;;;;;-7.81;100.00;100558.72;6073069;28;20465;-67
2022/12/16 01:12:21;;;;;;;16.90;6.80;;;;;;;-8.27;100.00;100574.38;6072578;28;20112;-68
2022/12/16 01:15:17;;;;;;;24.40;7.90;;;;;;;-8.64;100.00;100563.97;6073137;28;20033;-68
2022/12/16 01:18:13;;;;;;;14.73;5.82;;;;;;;-8.18;100.00;100568.16;6073360;28;20044;-67
2022/12/16 01:21:11;;;;;;;15.43;6.40;;;;;;;-8.11;100.00;100565.41;6072914;28;20033;-67
2022/12/16 01:24:07;;;;;;;7.82;5.22;;;;;;;-7.68;100.00;100575.56;6072193;28;20044;-67
2022/12/16 01:27:02;;;;;;;23.17;7.32;;;;;;;-8.21;100.00;100573.34;6072981;28;20036;-67
2022/12/16 01:29:58;;;;;;;24.07;6.63;;;;;;;-8.63;100.00;100593.94;6073065;28;20473;-67
2022/12/16 01:32:53;;;;;;;20.23;8.23;;;;;;;-8.95;100.00;100595.41;6072717;28;20034;-67
2022/12/16 01:35:48;;;;;;;19.30;6.63;;;;;;;-8.78;100.00;100595.97;6073018;28;20036;-67
2022/12/16 01:38:44;;;;;;;16.57;7.60;;;;;;;-7.97;100.00;100598.53;6072671;28;20098;-67
2022/12/16 01:41:39;;;;;;;21.00;8.20;;;;;;;-7.87;100.00;100585.44;6072929;28;20593;-67
2022/12/16 01:44:34;;;;;;;15.47;6.80;;;;;;;-8.58;100.00;100601.56;6072201;28;20037;-68
2022/12/16 01:47:31;;;;;;;23.08;8.10;;;;;;;-8.16;100.00;100592.09;6073158;28;20114;-68
2022/12/16 01:50:27;;;;;;;19.50;7.57;;;;;;;-8.16;100.00;100590.38;6072783;28;20494;-67
2022/12/16 01:53:23;;;;;;;16.25;7.00;;;;;;;-8.13;100.00;100571.47;6054331;28;20062;-68
2022/12/16 01:56:19;;;;;;;16.57;7.17;;;;;;;-8.45;100.00;100599.59;6055592;28;20422;-67
2022/12/16 01:59:15;;;;;;;18.23;8.10;;;;;;;-8.38;100.00;100590.88;6072393;28;20330;-67
2022/12/16 02:02:11;;;;;;;15.95;7.60;;;;;;;-8.55;100.00;100606.63;6054383;28;20044;-67
2022/12/16 02:05:21;;;;;;;14.13;6.20;;;;;;;-8.57;100.00;100588.69;6072606;28;20029;-67
2022/12/16 02:08:18;;;;;;;18.02;7.15;;;;;;;-8.25;100.00;100587.13;6072420;28;20075;-67
2022/12/16 02:11:23;;;;;;;12.70;7.05;;;;;;;-8.56;100.00;100605.78;6072931;28;20037;-68
2022/12/16 02:14:30;;;;;;;18.13;5.95;;;;;;;-7.95;100.00;100607.06;6058923;28;20474;-68
2022/12/16 02:17:53;;;;;;;21.25;8.52;;;;;;;-8.23;100.00;100600.81;6059290;28;20471;-67
2022/12/16 02:21:05;;;;;;;19.73;6.25;;;;;;;-8.70;100.00;100594.94;6043752;28;20025;-67
2022/12/16 02:24:32;;;;;;;11.02;5.57;;;;;;;-9.13;100.00;100600.00;6058783;28;20037;-66
2022/12/16 02:27:38;;;;;;;19.10;6.78;;;;;;;-9.38;100.00;100608.16;6077151;28;20112;-67
2022/12/16 02:30:58;;;;;;;13.75;3.88;;;;;;;-8.38;100.00;100598.59;6059085;28;20052;-67
2022/12/16 02:34:17;;;;;;;17.38;7.65;;;;;;;-8.16;100.00;100592.09;6075834;28;20068;-67
2022/12/16 02:37:35;;;;;;;20.05;6.57;;;;;;;-8.85;100.00;100574.66;6058529;28;20104;-67
2022/12/16 02:40:44;;;;;;;19.85;8.68;;;;;;;-8.34;100.00;100592.53;6059026;28;20410;-66
2022/12/16 02:43:50;;;;;;;18.55;4.68;;;;;;;-8.29;100.00;100580.41;6058387;28;20033;-70
2022/12/16 02:46:54;;;;;;;10.63;2.80;;;;;;;-8.06;100.00;100580.72;6058833;28;20116;-67
2022/12/16 02:49:52;;;;;;;19.77;6.43;;;;;;;-8.25;100.00;100551.16;6076162;28;20034;-67
2022/12/16 02:52:48;;;;;;;20.95;7.68;;;;;;;-7.85;100.00;100580.25;6075874;28;20033;-67
2022/12/16 02:55:52;;;;;;;9.68;5.30;;;;;;;-7.77;100.00;100580.91;6076239;28;20367;-67
2022/12/16 02:59:10;;;;;;;10.90;5.18;;;;;;;-8.59;100.00;100592.16;6075732;28;20029;-68
2022/12/16 03:02:17;;;;;;;17.83;7.07;;;;;;;-8.20;100.00;100595.59;6075539;28;20041;-67
2022/12/16 03:05:35;;;;;;;15.85;6.85;;;;;;;-7.79;100.00;100592.97;6057783;28;20044;-66
2022/12/16 03:08:34;;;;;;;23.20;7.05;;;;;;;-7.89;100.00;100587.22;6058538;28;20037;-67
2022/12/16 03:11:30;;;;;;;19.00;6.97;;;;;;;-7.86;100.00;100586.28;6057994;28;20040;-67
2022/12/16 03:14:28;;;;;;;19.95;7.72;;;;;;;-7.84;100.00;100594.81;6074792;28;20037;-67
2022/12/16 03:17:24;;;;;;;10.63;4.80;;;;;;;-7.82;100.00;100571.59;6057701;28;20463;-67
2022/12/16 03:20:27;;;;;;;19.75;5.43;;;;;;;-8.78;100.00;100591.69;6057938;28;20038;-67
2022/12/16 03:23:28;;;;;;;11.27;4.15;;;;;;;-8.44;100.00;100576.44;6075027;28;20030;-67
2022/12/16 03:26:38;;;;;;;24.48;7.10;;;;;;;-8.23;100.00;100590.50;6057826;28;20037;-67
2022/12/16 03:29:42;;;;;;;27.63;7.90;;;;;;;-8.67;100.00;100594.84;6075775;28;20475;-68
2022/12/16 03:32:45;;;;;;;13.48;5.68;;;;;;;-8.99;100.00;100592.03;6056843;28;20116;-67
2022/12/16 03:35:48;;;;;;;18.83;5.85;;;;;;;-8.95;100.00;100593.69;6075385;28;20544;-67
2022/12/16 03:38:45;;;;;;;21.10;6.15;;;;;;;-9.50;100.00;100582.66;6057224;28;20092;-68
2022/12/16 03:41:42;;;;;;;16.80;6.10;;;;;;;-9.79;100.00;100599.38;6057643;28;20033;-67
2022/12/16 03:44:37;;;;;;;16.35;6.20;;;;;;;-9.43;100.00;100595.38;6056702;28;20487;-67
2022/12/16 03:47:33;;;;;;;11.50;6.13;;;;;;;-9.55;100.00;100569.06;6057147;28;20120;-67
2022/12/16 03:50:32;;;;;;;11.43;6.03;;;;;;;-9.25;100.00;100592.53;6075159;28;20112;-67
2022/12/16 03:53:29;;;;;;;15.57;5.72;;;;;;;-9.76;100.00;100601.03;6073938;28;20276;-67
2022/12/16 03:56:24;;;;;;;16.27;6.30;;;;;;;-10.10;100.00;100590.41;6074765;28;20038;-66
2022/12/16 03:59:19;;;;;;;16.70;6.23;;;;;;;-10.19;100.00;100595.69;6074939;28;20099;-67
2022/12/16 04:02:15;;;;;;;16.48;6.55;;;;;;;-10.33;100.00;100607.84;6073662;28;20449;-67
2022/12/16 04:05:10;;;;;;;16.53;6.40;;;;;;;-10.51;100.00;100590.13;6073657;28;20041;-68
2022/12/16 04:08:05;;;;;;;11.57;5.20;;;;;;;-10.22;100.00;100610.28;6082088;28;20082;-68
2022/12/16 04:24:19;;;;;;;23.95;7.47;;;;;;;-10.36;100.00;100633.50;6073753;28;20390;-66
2022/12/16 04:27:23;;;;;;;14.80;5.90;;;;;;;-10.35;100.00;100635.19;6074111;28;20382;-69
2022/12/16 04:30:19;;;;;;;26.33;6.70;;;;;;;-10.41;100.00;100625.03;6074243;28;20516;-66
